createdAt,value
2023-01-12T16:00:17.995Z,10.25
2023-01-12T16:01:18.712Z,10.22
2023-01-12T16:02:18.322Z,10.19
2023-01-12T16:04:40.094Z,10.26
2023-01-12T16:04:52.120Z,10.26
2023-01-12T16:05:52.096Z,10.23
2023-01-12T16:06:52.133Z,10.26
2023-01-12T16:07:54.333Z,10.31
2023-01-12T16:08:51.892Z,10.28
2023-01-12T16:09:52.380Z,10.3
2023-01-12T16:10:52.368Z,10.25
2023-01-12T16:11:51.910Z,10.26
2023-01-12T16:12:52.430Z,10.25
2023-01-12T16:13:52.844Z,10.25
2023-01-12T16:14:51.933Z,10.28
2023-01-12T16:15:52.870Z,10.28
2023-01-12T16:16:52.726Z,10.23
2023-01-12T16:17:52.221Z,10.16
2023-01-12T16:18:52.025Z,10.23
2023-01-12T16:19:52.305Z,10.23
2023-01-12T16:20:52.046Z,10.2
2023-01-12T16:21:51.989Z,10.19
2023-01-12T16:22:52.331Z,10.26
2023-01-12T16:23:53.693Z,10.25
2023-01-12T16:24:52.937Z,10.28
2023-01-12T16:25:52.360Z,10.25
2023-01-12T16:26:53.264Z,10.28
2023-01-12T16:27:52.397Z,10.28
2023-01-12T16:28:52.276Z,10.28
2023-01-12T16:29:52.375Z,10.22
2023-01-12T16:30:52.113Z,10.28
2023-01-12T16:31:53.243Z,10.31
2023-01-12T16:32:52.384Z,10.35
2023-01-12T16:33:52.108Z,10.23
2023-01-12T16:34:52.130Z,10.31
2023-01-12T16:35:52.375Z,10.25
2023-01-12T16:36:52.704Z,10.3
2023-01-12T16:37:52.112Z,10.37
2023-01-12T16:38:52.398Z,10.25
2023-01-12T16:39:53.509Z,10.34
2023-01-12T16:40:52.413Z,10.31
2023-01-12T16:41:52.449Z,10.34
2023-01-12T16:42:53.351Z,10.35
2023-01-12T16:43:52.420Z,10.33
2023-01-12T16:44:52.736Z,10.28
2023-01-12T16:45:52.643Z,10.33
2023-01-12T16:46:52.212Z,10.31
2023-01-12T16:47:53.443Z,10.3
2023-01-12T16:48:52.460Z,10.3
2023-01-12T16:49:52.231Z,10.25
2023-01-12T16:50:52.540Z,10.26
2023-01-12T16:51:52.496Z,10.2
2023-01-12T16:52:52.811Z,10.28
2023-01-12T16:53:52.509Z,10.35
2023-01-12T16:54:52.578Z,10.33
2023-01-12T16:55:53.616Z,10.25
2023-01-12T16:56:52.314Z,10.22
2023-01-12T16:57:52.545Z,10.23
2023-01-12T16:58:53.772Z,10.22
2023-01-12T16:59:54.011Z,10.16
2023-01-12T17:00:52.655Z,10.31
2023-01-12T17:01:53.046Z,10.22
2023-01-12T17:02:52.920Z,10.23
2023-01-12T17:03:53.652Z,10.2
2023-01-12T17:04:53.172Z,10.22
2023-01-12T17:05:53.272Z,10.16
2023-01-12T17:06:53.184Z,10.23
2023-01-12T17:07:54.271Z,10.25
2023-01-12T17:08:54.192Z,10.23
2023-01-12T17:09:52.974Z,10.3
2023-01-12T17:10:53.137Z,10.3
2023-01-12T17:11:54.085Z,10.3
2023-01-12T17:13:06.811Z,10.26
2023-01-12T17:13:54.594Z,10.35
2023-01-12T17:14:53.502Z,10.28
2023-01-12T17:15:53.646Z,10.26
2023-01-12T17:16:53.051Z,10.25
2023-01-12T17:17:53.208Z,10.25
2023-01-12T17:18:53.146Z,10.25
2023-01-12T17:19:56.447Z,10.22
2023-01-12T17:20:52.670Z,10.28
2023-01-12T17:21:55.222Z,10.16
2023-01-12T17:22:52.739Z,10.25
2023-01-12T17:23:52.759Z,10.2
2023-01-12T17:24:54.120Z,10.2
2023-01-12T17:25:53.424Z,10.13
2023-01-12T17:26:53.507Z,10.19
2023-01-12T17:27:53.871Z,10.13
2023-01-12T17:28:52.812Z,10.1
2023-01-12T17:29:52.550Z,10.13
2023-01-12T17:30:54.545Z,10.13
2023-01-12T17:31:53.770Z,10.09
2023-01-12T17:32:52.702Z,10.09
2023-01-12T17:33:53.151Z,10.1
2023-01-12T17:34:52.910Z,10.13
2023-01-12T17:35:53.909Z,10.13
2023-01-12T17:36:53.534Z,10.12
2023-01-12T17:37:53.452Z,10.12
2023-01-12T17:38:52.959Z,10.13
2023-01-12T17:39:53.004Z,10.02
2023-01-12T17:40:53.345Z,10.1
2023-01-12T17:41:52.912Z,10.05
2023-01-12T17:42:53.357Z,10.1
2023-01-12T17:43:52.952Z,10.01
2023-01-12T17:44:52.693Z,9.94
2023-01-12T17:45:53.752Z,10.01
2023-01-12T17:46:53.753Z,10.07
2023-01-12T17:47:52.757Z,10.01
2023-01-12T17:48:55.587Z,9.97
2023-01-12T17:49:52.862Z,10.02
2023-01-12T17:50:54.248Z,9.99
2023-01-12T17:51:53.150Z,10.02
2023-01-12T17:52:53.701Z,10.02
2023-01-12T17:53:53.820Z,10.01
2023-01-12T17:54:53.026Z,10.04
2023-01-12T17:55:55.898Z,9.97
2023-01-12T17:56:53.505Z,9.99
2023-01-12T17:57:52.828Z,9.98
2023-01-12T17:58:53.360Z,9.94
2023-01-12T17:59:53.333Z,10.01
2023-01-12T18:00:53.235Z,9.97
2023-01-12T18:01:54.394Z,10.04
2023-01-12T18:02:53.277Z,10.05
2023-01-12T18:03:53.490Z,9.98
2023-01-12T18:04:53.404Z,10.01
2023-01-12T18:06:25.729Z,10.07
2023-01-12T18:06:53.491Z,10.07
2023-01-12T18:07:53.564Z,10.05
2023-01-12T18:08:52.646Z,9.97
2023-01-12T18:09:53.957Z,9.94
2023-01-12T18:10:52.684Z,9.99
2023-01-12T18:11:52.965Z,9.95
2023-01-12T18:12:53.801Z,9.98
2023-01-12T18:13:53.227Z,9.94
2023-01-12T18:14:53.038Z,9.89
2023-01-12T18:15:53.074Z,9.98
2023-01-12T18:16:53.257Z,9.94
2023-01-12T18:17:53.339Z,9.91
2023-01-12T18:18:53.264Z,9.91
2023-01-12T18:19:53.277Z,9.98
2023-01-12T18:20:53.348Z,9.89
2023-01-12T18:21:53.266Z,9.89
2023-01-12T18:22:53.316Z,9.97
2023-01-12T18:23:53.399Z,9.84
2023-01-12T18:24:53.891Z,9.82
2023-01-12T18:25:53.819Z,9.92
2023-01-12T18:26:53.971Z,9.84
2023-01-12T18:27:54.023Z,9.89
2023-01-12T18:28:53.762Z,9.87
2023-01-12T18:29:53.117Z,9.86
2023-01-12T18:30:53.541Z,9.79
2023-01-12T18:31:53.481Z,9.87
2023-01-12T18:32:53.127Z,9.83
2023-01-12T18:33:53.601Z,9.82
2023-01-12T18:34:53.215Z,9.97
2023-01-12T18:35:53.131Z,9.82
2023-01-12T18:36:53.602Z,9.84
2023-01-12T18:37:53.405Z,9.87
2023-01-12T18:38:53.890Z,9.8
2023-01-12T18:39:53.511Z,9.83
2023-01-12T18:40:53.173Z,9.86
2023-01-12T18:41:54.103Z,9.83
2023-01-12T18:42:53.434Z,9.77
2023-01-12T18:43:53.213Z,9.86
2023-01-12T18:44:53.860Z,9.84
2023-01-12T18:45:53.237Z,9.83
2023-01-12T18:46:53.855Z,9.92
2023-01-12T18:47:53.500Z,9.86
2023-01-12T18:48:53.230Z,9.79
2023-01-12T18:49:54.164Z,9.8
2023-01-12T18:50:53.619Z,9.83
2023-01-12T18:51:53.453Z,9.87
2023-01-12T18:52:53.764Z,9.87
2023-01-12T18:53:54.358Z,9.83
2023-01-12T18:54:53.535Z,9.8
2023-01-12T18:55:53.934Z,9.84
2023-01-12T18:56:53.307Z,9.82
2023-01-12T18:57:54.338Z,9.76
2023-01-12T18:58:53.576Z,9.79
2023-01-12T18:59:53.189Z,9.89
2023-01-12T19:00:53.282Z,9.83
2023-01-12T19:01:53.995Z,9.84
2023-01-12T19:02:54.019Z,9.8
2023-01-12T19:03:53.647Z,9.84
2023-01-12T19:04:53.669Z,9.82
2023-01-12T19:05:54.398Z,9.8
2023-01-12T19:06:53.637Z,9.83
2023-01-12T19:07:53.431Z,9.95
2023-01-12T19:08:55.108Z,9.82
2023-01-12T19:09:54.276Z,9.79
2023-01-12T19:10:54.124Z,9.79
2023-01-12T19:11:54.612Z,9.84
2023-01-12T19:12:53.903Z,9.76
2023-01-12T19:13:54.207Z,9.68
2023-01-12T19:14:53.453Z,9.79
2023-01-12T19:15:54.755Z,9.84
2023-01-12T19:16:53.759Z,9.77
2023-01-12T19:17:53.742Z,9.77
2023-01-12T19:18:54.064Z,9.76
2023-01-12T19:19:53.746Z,9.76
2023-01-12T19:20:53.249Z,9.77
2023-01-12T19:21:54.574Z,9.8
2023-01-12T19:22:53.856Z,9.77
2023-01-12T19:23:54.380Z,9.76
2023-01-12T19:24:54.246Z,9.76
2023-01-12T19:25:54.387Z,9.77
2023-01-12T19:26:54.220Z,9.77
2023-01-12T19:27:54.193Z,9.74
2023-01-12T19:28:53.642Z,9.76
2023-01-12T19:29:54.045Z,9.82
2023-01-12T19:30:54.133Z,9.82
2023-01-12T19:31:55.576Z,9.8
2023-01-12T19:32:53.899Z,9.82
2023-01-12T19:33:53.608Z,9.79
2023-01-12T19:35:10.815Z,9.8
2023-01-12T19:35:53.961Z,9.76
2023-01-12T19:36:53.933Z,9.66
2023-01-12T19:37:53.905Z,9.69
2023-01-12T19:38:55.621Z,9.65
2023-01-12T19:40:02.790Z,9.72
2023-01-12T19:40:53.921Z,9.68
2023-01-12T19:41:53.693Z,9.65
2023-01-12T19:42:54.249Z,9.65
2023-01-12T19:43:54.371Z,9.59
2023-01-12T19:44:54.202Z,9.69
2023-01-12T19:45:54.309Z,9.58
2023-01-12T19:46:54.383Z,9.73
2023-01-12T19:47:54.665Z,9.72
2023-01-12T19:48:53.978Z,9.72
2023-01-12T19:49:54.684Z,9.73
2023-01-12T19:50:54.881Z,9.55
2023-01-12T19:51:54.167Z,9.62
2023-01-12T19:52:55.136Z,9.65
2023-01-12T19:53:54.268Z,9.55
2023-01-12T19:54:53.768Z,9.66
2023-01-12T19:55:54.656Z,9.58
2023-01-12T19:56:53.793Z,9.68
2023-01-12T19:57:56.878Z,9.66
2023-01-12T19:58:54.524Z,9.72
2023-01-12T19:59:54.140Z,9.64
2023-01-12T20:00:54.060Z,9.73
2023-01-12T20:01:54.376Z,9.64
2023-01-12T20:02:54.316Z,9.74
2023-01-12T20:03:54.161Z,9.68
2023-01-12T20:04:54.736Z,9.76
2023-01-12T20:05:54.053Z,9.69
2023-01-12T20:06:53.950Z,9.74
2023-01-12T20:07:53.885Z,9.66
2023-01-12T20:08:53.952Z,9.77
2023-01-12T20:09:54.250Z,9.79
2023-01-12T20:10:54.158Z,9.76
2023-01-12T20:11:54.944Z,9.8
2023-01-12T20:12:53.981Z,9.76
2023-01-12T20:13:54.296Z,9.82
2023-01-12T20:14:54.247Z,9.82
2023-01-12T20:15:54.606Z,9.84
2023-01-12T20:16:53.936Z,9.82
2023-01-12T20:17:54.193Z,9.92
2023-01-12T20:18:54.240Z,9.87
2023-01-12T20:19:54.548Z,9.79
2023-01-12T20:20:53.998Z,9.95
2023-01-12T20:21:54.243Z,9.92
2023-01-12T20:22:54.435Z,9.8
2023-01-12T20:23:54.966Z,9.86
2023-01-12T20:24:55.167Z,9.83
2023-01-12T20:25:54.902Z,9.82
2023-01-12T20:26:54.660Z,9.82
2023-01-12T20:27:56.576Z,9.82
2023-01-12T20:28:54.323Z,9.82
2023-01-12T20:29:54.425Z,9.8
2023-01-12T20:30:54.079Z,9.83
2023-01-12T20:31:54.627Z,9.84
2023-01-12T20:32:54.690Z,9.8
2023-01-12T20:33:54.432Z,9.92
2023-01-12T20:34:54.403Z,9.79
2023-01-12T20:35:55.086Z,9.91
2023-01-12T20:36:54.403Z,9.86
2023-01-12T20:37:54.389Z,9.83
2023-01-12T20:38:54.719Z,9.79
2023-01-12T20:39:54.166Z,9.84
2023-01-12T20:40:54.667Z,9.82
2023-01-12T20:41:54.159Z,9.84
2023-01-12T20:42:53.934Z,9.94
2023-01-12T20:43:54.526Z,9.91
2023-01-12T20:44:54.498Z,9.92
2023-01-12T20:45:54.203Z,9.89
2023-01-12T20:46:54.960Z,9.76
2023-01-12T20:47:56.081Z,9.74
2023-01-12T20:48:54.796Z,9.84
2023-01-12T20:49:54.290Z,9.82
2023-01-12T20:50:54.486Z,9.84
2023-01-12T20:51:54.912Z,9.87
2023-01-12T20:52:54.532Z,9.82
2023-01-12T20:53:54.266Z,9.73
2023-01-12T20:54:54.364Z,9.83
2023-01-12T20:55:54.541Z,9.8
2023-01-12T20:56:54.336Z,9.76
2023-01-12T20:57:54.561Z,9.77
2023-01-12T20:58:54.546Z,9.82
2023-01-12T20:59:54.171Z,9.79
2023-01-12T21:00:54.971Z,9.76
2023-01-12T21:01:55.117Z,9.77
2023-01-12T21:02:54.512Z,9.79
2023-01-12T21:03:54.891Z,9.8
2023-01-12T21:04:55.123Z,9.89
2023-01-12T21:05:55.502Z,9.82
2023-01-12T21:06:54.665Z,9.83
2023-01-12T21:08:10.054Z,9.87
2023-01-12T21:08:54.386Z,9.79
2023-01-12T21:09:54.784Z,9.77
2023-01-12T21:10:54.157Z,9.82
2023-01-12T21:11:54.658Z,9.82
2023-01-12T21:12:54.688Z,9.83
2023-01-12T21:13:54.429Z,9.86
2023-01-12T21:14:54.729Z,9.8
2023-01-12T21:15:54.454Z,9.8
2023-01-12T21:16:54.923Z,9.86
2023-01-12T21:17:55.467Z,9.86
2023-01-12T21:18:54.740Z,9.82
2023-01-12T21:19:54.845Z,9.89
2023-01-12T21:20:55.041Z,9.83
2023-01-12T21:21:54.759Z,9.83
2023-01-12T21:22:55.062Z,9.86
2023-01-12T21:23:54.779Z,9.91
2023-01-12T21:24:54.857Z,9.86
2023-01-12T21:25:54.960Z,9.87
2023-01-12T21:26:54.841Z,9.94
2023-01-12T21:27:55.061Z,9.97
2023-01-12T21:28:54.440Z,9.98
2023-01-12T21:29:55.019Z,9.97
2023-01-12T21:30:55.160Z,9.92
2023-01-12T21:31:54.660Z,9.97
2023-01-12T21:32:54.626Z,9.99
2023-01-12T21:33:54.508Z,10.07
2023-01-12T21:34:54.871Z,10.07
2023-01-12T21:35:54.947Z,10.09
2023-01-12T21:36:54.622Z,10.07
2023-01-12T21:37:54.632Z,9.99
2023-01-12T21:38:55.208Z,10.07
2023-01-12T21:39:54.687Z,10.05
2023-01-12T21:40:54.647Z,10.05
2023-01-12T21:41:55.718Z,10.17
2023-01-12T21:42:54.913Z,10.1
2023-01-12T21:43:55.309Z,10.17
2023-01-12T21:44:55.437Z,10.23
2023-01-12T21:45:55.416Z,10.17
2023-01-12T21:46:55.171Z,10.15
2023-01-12T21:47:55.367Z,10.22
2023-01-12T21:48:54.978Z,10.15
2023-01-12T21:49:55.596Z,10.15
2023-01-12T21:50:55.677Z,10.17
2023-01-12T21:51:55.507Z,10.16
2023-01-12T21:52:55.008Z,10.12
2023-01-12T21:53:56.870Z,10.1
2023-01-12T21:54:55.503Z,10.2
2023-01-12T21:55:55.050Z,10.17
2023-01-12T21:56:55.086Z,10.23
2023-01-12T21:57:55.620Z,10.2
2023-01-12T21:58:55.122Z,10.16
2023-01-12T21:59:55.112Z,10.19
2023-01-12T22:00:55.668Z,10.13
2023-01-12T22:01:55.625Z,10.19
2023-01-12T22:02:55.417Z,10.13
2023-01-12T22:03:55.397Z,10.22
2023-01-12T22:04:55.570Z,10.25
2023-01-12T22:05:55.719Z,10.26
2023-01-12T22:06:55.279Z,10.25
2023-01-12T22:07:55.321Z,10.26
2023-01-12T22:08:55.972Z,10.26
2023-01-12T22:09:54.916Z,10.28
2023-01-12T22:10:54.712Z,10.28
2023-01-12T22:11:55.481Z,10.31
2023-01-12T22:12:55.171Z,10.31
2023-01-12T22:13:55.268Z,10.15
2023-01-12T22:14:54.931Z,10.1
2023-01-12T22:15:54.940Z,10.15
2023-01-12T22:16:55.252Z,10.13
2023-01-12T22:17:55.205Z,10.13
2023-01-12T22:18:55.260Z,10.1
2023-01-12T22:19:55.223Z,10.15
2023-01-12T22:20:55.324Z,10.15
2023-01-12T22:21:55.384Z,10.19
2023-01-12T22:22:55.050Z,10.2
2023-01-12T22:23:55.401Z,10.25
2023-01-12T22:24:55.579Z,10.25
2023-01-12T22:25:55.317Z,10.26
2023-01-12T22:26:55.441Z,10.28
2023-01-12T22:27:55.289Z,10.25
2023-01-12T22:28:55.344Z,10.28
2023-01-12T22:29:55.938Z,10.23
2023-01-12T22:30:55.134Z,10.31
2023-01-12T22:31:55.394Z,10.31
2023-01-12T22:32:55.176Z,10.35
2023-01-12T22:33:55.340Z,10.25
2023-01-12T22:34:54.952Z,10.3
2023-01-12T22:35:55.557Z,10.33
2023-01-12T22:36:55.388Z,10.35
2023-01-12T22:37:55.706Z,10.38
2023-01-12T22:38:56.014Z,10.4
2023-01-12T22:39:56.823Z,10.34
2023-01-12T22:40:56.116Z,10.34
2023-01-12T22:41:56.057Z,10.33
2023-01-12T22:42:55.441Z,10.28
2023-01-12T22:43:55.256Z,10.35
2023-01-12T22:44:55.445Z,10.3
2023-01-12T22:45:57.363Z,10.34
2023-01-12T22:46:55.202Z,10.37
2023-01-12T22:47:55.467Z,10.35
2023-01-12T22:48:55.538Z,10.3
2023-01-12T22:49:55.506Z,10.23
2023-01-12T22:50:55.808Z,10.23
2023-01-12T22:51:55.262Z,10.31
2023-01-12T22:52:55.950Z,10.13
2023-01-12T22:53:55.545Z,10.23
2023-01-12T22:54:55.973Z,10.22
2023-01-12T22:55:56.601Z,10.2
2023-01-12T22:56:55.910Z,10.1
2023-01-12T22:57:55.674Z,10.17
2023-01-12T22:58:56.359Z,10.1
2023-01-12T22:59:55.757Z,10.13
2023-01-12T23:00:56.807Z,10.16
2023-01-12T23:01:56.356Z,10.05
2023-01-12T23:02:55.806Z,10.07
2023-01-12T23:03:59.805Z,10.15
2023-01-12T23:04:55.640Z,10.09
2023-01-12T23:05:55.726Z,10.17
2023-01-12T23:06:56.011Z,10.13
2023-01-12T23:07:55.667Z,10.1
2023-01-12T23:08:55.491Z,10.13
2023-01-12T23:09:55.441Z,10.07
2023-01-12T23:10:55.703Z,10.1
2023-01-12T23:11:56.262Z,10.17
2023-01-12T23:12:55.729Z,10.1
2023-01-12T23:13:55.228Z,10.19
2023-01-12T23:14:55.789Z,10.22
2023-01-12T23:15:55.794Z,10.19
2023-01-12T23:16:55.807Z,10.19
2023-01-12T23:17:55.241Z,10.23
2023-01-12T23:18:55.755Z,10.22
2023-01-12T23:19:56.414Z,10.26
2023-01-12T23:20:55.598Z,10.3
2023-01-12T23:21:55.518Z,10.28
2023-01-12T23:22:56.075Z,10.3
2023-01-12T23:23:56.416Z,10.19
2023-01-12T23:24:57.069Z,10.34
2023-01-12T23:25:55.849Z,10.25
2023-01-12T23:26:55.896Z,10.26
2023-01-12T23:27:56.713Z,10.25
2023-01-12T23:28:55.916Z,10.2
2023-01-12T23:29:55.874Z,10.28
2023-01-12T23:30:55.747Z,10.26
2023-01-12T23:31:55.884Z,10.26
2023-01-12T23:32:55.959Z,10.28
2023-01-12T23:33:55.647Z,10.28
2023-01-12T23:34:55.622Z,10.28
2023-01-12T23:35:56.043Z,10.25
2023-01-12T23:36:56.118Z,10.23
2023-01-12T23:37:56.546Z,10.26
2023-01-12T23:38:55.966Z,10.28
2023-01-12T23:39:55.680Z,10.25
2023-01-12T23:40:55.503Z,10.25
2023-01-12T23:41:57.057Z,10.2
2023-01-12T23:42:55.735Z,10.19
2023-01-12T23:43:56.931Z,10.19
2023-01-12T23:44:56.948Z,10.22
2023-01-12T23:45:56.392Z,10.31
2023-01-12T23:46:57.134Z,10.23
2023-01-12T23:47:56.476Z,10.2
2023-01-12T23:48:56.847Z,10.1
2023-01-12T23:49:55.995Z,10.16
2023-01-12T23:50:56.397Z,10.17
2023-01-12T23:51:56.338Z,10.22
2023-01-12T23:52:56.084Z,10.26
2023-01-12T23:53:56.100Z,10.1
2023-01-12T23:54:56.396Z,10.13
2023-01-12T23:55:56.068Z,10.09
2023-01-12T23:56:56.115Z,10.07
2023-01-12T23:57:56.147Z,10.15
2023-01-12T23:58:55.904Z,10.17
2023-01-12T23:59:56.993Z,10.16
